sensor_id;sensor_type;location;lat;lon;timestamp;P1;durP1;ratioP1;P2;durP2;ratioP2
33505;SDS011;19843;51.040;13.782;2022-08-11T00:01:04;2.13;;;1.90;;
33505;SDS011;19843;51.040;13.782;2022-08-11T00:03:35;2.60;;;2.17;;
33505;SDS011;19843;51.040;13.782;2022-08-11T00:06:09;2.58;;;1.90;;
33505;SDS011;19843;51.040;13.782;2022-08-11T00:08:39;2.33;;;1.88;;
33505;SDS011;19843;51.040;13.782;2022-08-11T00:11:09;2.63;;;1.60;;
33505;SDS011;19843;51.040;13.782;2022-08-11T00:13:39;2.97;;;2.20;;
33505;SDS011;19843;51.040;13.782;2022-08-11T00:16:11;2.03;;;1.80;;
33505;SDS011;19843;51.040;13.782;2022-08-11T00:18:43;2.88;;;2.05;;
33505;SDS011;19843;51.040;13.782;2022-08-11T00:21:12;2.08;;;1.83;;
33505;SDS011;19843;51.040;13.782;2022-08-11T00:23:41;3.65;;;1.95;;
33505;SDS011;19843;51.040;13.782;2022-08-11T00:26:11;2.58;;;2.38;;
33505;SDS011;19843;51.040;13.782;2022-08-11T00:28:40;2.15;;;1.75;;
33505;SDS011;19843;51.040;13.782;2022-08-11T00:31:09;2.22;;;1.98;;
33505;SDS011;19843;51.040;13.782;2022-08-11T00:33:49;2.80;;;1.90;;
33505;SDS011;19843;51.040;13.782;2022-08-11T00:36:18;2.10;;;1.65;;
33505;SDS011;19843;51.040;13.782;2022-08-11T00:38:51;2.85;;;2.10;;
33505;SDS011;19843;51.040;13.782;2022-08-11T00:41:27;3.15;;;1.80;;
33505;SDS011;19843;51.040;13.782;2022-08-11T00:44:03;2.50;;;1.90;;
33505;SDS011;19843;51.040;13.782;2022-08-11T00:46:41;3.58;;;2.08;;
33505;SDS011;19843;51.040;13.782;2022-08-11T00:49:25;5.10;;;2.03;;
33505;SDS011;19843;51.040;13.782;2022-08-11T00:52:07;4.75;;;2.05;;
33505;SDS011;19843;51.040;13.782;2022-08-11T00:54:59;1.70;;;1.55;;
33505;SDS011;19843;51.040;13.782;2022-08-11T01:01:07;2.10;;;1.92;;
33505;SDS011;19843;51.040;13.782;2022-08-11T01:03:50;2.00;;;1.75;;
33505;SDS011;19843;51.040;13.782;2022-08-11T01:06:46;2.80;;;2.13;;
33505;SDS011;19843;51.040;13.782;2022-08-11T01:09:33;3.15;;;2.10;;
33505;SDS011;19843;51.040;13.782;2022-08-11T01:14:56;2.57;;;1.80;;
33505;SDS011;19843;51.040;13.782;2022-08-11T01:21:02;2.50;;;2.30;;
33505;SDS011;19843;51.040;13.782;2022-08-11T01:23:54;2.30;;;2.10;;
33505;SDS011;19843;51.040;13.782;2022-08-11T01:26:53;3.13;;;2.30;;
33505;SDS011;19843;51.040;13.782;2022-08-11T01:29:54;2.63;;;1.90;;
33505;SDS011;19843;51.040;13.782;2022-08-11T01:39:06;4.25;;;3.05;;
33505;SDS011;19843;51.040;13.782;2022-08-11T01:45:10;2.58;;;1.77;;
33505;SDS011;19843;51.040;13.782;2022-08-11T01:47:55;5.78;;;2.40;;
33505;SDS011;19843;51.040;13.782;2022-08-11T01:50:39;3.92;;;2.17;;
33505;SDS011;19843;51.040;13.782;2022-08-11T01:56:00;2.58;;;1.95;;
33505;SDS011;19843;51.040;13.782;2022-08-11T01:58:37;2.97;;;2.17;;
33505;SDS011;19843;51.040;13.782;2022-08-11T02:01:21;2.47;;;2.28;;
33505;SDS011;19843;51.040;13.782;2022-08-11T02:04:00;2.35;;;2.13;;
33505;SDS011;19843;51.040;13.782;2022-08-11T02:06:37;4.32;;;2.33;;
33505;SDS011;19843;51.040;13.782;2022-08-11T02:09:40;1.95;;;1.77;;
33505;SDS011;19843;51.040;13.782;2022-08-11T02:12:24;3.85;;;2.53;;
33505;SDS011;19843;51.040;13.782;2022-08-11T02:15:07;3.30;;;2.05;;
33505;SDS011;19843;51.040;13.782;2022-08-11T02:17:45;3.10;;;2.10;;
33505;SDS011;19843;51.040;13.782;2022-08-11T02:20:22;3.90;;;2.22;;
33505;SDS011;19843;51.040;13.782;2022-08-11T02:23:12;3.67;;;2.28;;
33505;SDS011;19843;51.040;13.782;2022-08-11T02:26:30;2.38;;;1.90;;
33505;SDS011;19843;51.040;13.782;2022-08-11T02:29:04;5.03;;;2.42;;
33505;SDS011;19843;51.040;13.782;2022-08-11T02:31:52;5.93;;;2.45;;
33505;SDS011;19843;51.040;13.782;2022-08-11T02:34:58;2.95;;;2.42;;
33505;SDS011;19843;51.040;13.782;2022-08-11T02:40:09;2.10;;;1.80;;
33505;SDS011;19843;51.040;13.782;2022-08-11T02:42:48;4.00;;;2.20;;
33505;SDS011;19843;51.040;13.782;2022-08-11T02:45:33;2.90;;;2.17;;
33505;SDS011;19843;51.040;13.782;2022-08-11T02:48:19;3.17;;;2.17;;
33505;SDS011;19843;51.040;13.782;2022-08-11T02:51:19;4.65;;;2.15;;
33505;SDS011;19843;51.040;13.782;2022-08-11T02:53:57;3.70;;;2.22;;
33505;SDS011;19843;51.040;13.782;2022-08-11T02:56:36;2.70;;;1.95;;
33505;SDS011;19843;51.040;13.782;2022-08-11T02:59:14;2.15;;;1.88;;
33505;SDS011;19843;51.040;13.782;2022-08-11T03:02:09;2.20;;;2.00;;
33505;SDS011;19843;51.040;13.782;2022-08-11T03:04:44;4.00;;;2.25;;
33505;SDS011;19843;51.040;13.782;2022-08-11T03:07:22;3.40;;;2.53;;
33505;SDS011;19843;51.040;13.782;2022-08-11T03:09:57;2.60;;;2.00;;
33505;SDS011;19843;51.040;13.782;2022-08-11T03:12:37;4.25;;;2.45;;
33505;SDS011;19843;51.040;13.782;2022-08-11T03:15:30;3.33;;;2.28;;
33505;SDS011;19843;51.040;13.782;2022-08-11T03:18:27;2.80;;;2.38;;
33505;SDS011;19843;51.040;13.782;2022-08-11T03:21:01;5.32;;;2.10;;
33505;SDS011;19843;51.040;13.782;2022-08-11T03:23:36;2.63;;;2.42;;
33505;SDS011;19843;51.040;13.782;2022-08-11T03:26:09;3.13;;;1.98;;
33505;SDS011;19843;51.040;13.782;2022-08-11T03:28:50;2.35;;;2.15;;
33505;SDS011;19843;51.040;13.782;2022-08-11T03:31:27;3.33;;;2.60;;
33505;SDS011;19843;51.040;13.782;2022-08-11T03:34:00;3.95;;;2.38;;
33505;SDS011;19843;51.040;13.782;2022-08-11T03:36:40;3.92;;;2.67;;
33505;SDS011;19843;51.040;13.782;2022-08-11T03:39:44;2.70;;;2.50;;
33505;SDS011;19843;51.040;13.782;2022-08-11T03:42:24;5.57;;;2.80;;
33505;SDS011;19843;51.040;13.782;2022-08-11T03:44:58;3.40;;;2.50;;
33505;SDS011;19843;51.040;13.782;2022-08-11T03:47:34;6.70;;;2.90;;
33505;SDS011;19843;51.040;13.782;2022-08-11T03:50:23;3.60;;;2.42;;
33505;SDS011;19843;51.040;13.782;2022-08-11T03:53:02;4.97;;;2.47;;
33505;SDS011;19843;51.040;13.782;2022-08-11T03:55:50;4.15;;;2.55;;
33505;SDS011;19843;51.040;13.782;2022-08-11T03:58:56;2.95;;;2.53;;
33505;SDS011;19843;51.040;13.782;2022-08-11T04:01:47;2.58;;;2.38;;
33505;SDS011;19843;51.040;13.782;2022-08-11T04:04:57;6.00;;;2.47;;
33505;SDS011;19843;51.040;13.782;2022-08-11T04:07:51;4.55;;;3.25;;
33505;SDS011;19843;51.040;13.782;2022-08-11T04:11:03;2.67;;;2.08;;
33505;SDS011;19843;51.040;13.782;2022-08-11T04:17:01;2.47;;;2.08;;
33505;SDS011;19843;51.040;13.782;2022-08-11T04:20:01;2.65;;;2.22;;
33505;SDS011;19843;51.040;13.782;2022-08-11T04:23:08;4.07;;;2.10;;
33505;SDS011;19843;51.040;13.782;2022-08-11T04:26:27;3.17;;;2.67;;
33505;SDS011;19843;51.040;13.782;2022-08-11T04:29:08;3.35;;;2.88;;
33505;SDS011;19843;51.040;13.782;2022-08-11T04:31:52;4.82;;;3.03;;
33505;SDS011;19843;51.040;13.782;2022-08-11T04:40:53;3.28;;;2.45;;
33505;SDS011;19843;51.040;13.782;2022-08-11T04:47:06;3.03;;;2.58;;
33505;SDS011;19843;51.040;13.782;2022-08-11T04:50:25;4.90;;;2.55;;
33505;SDS011;19843;51.040;13.782;2022-08-11T04:53:44;3.60;;;2.45;;
33505;SDS011;19843;51.040;13.782;2022-08-11T04:56:41;3.88;;;2.50;;
33505;SDS011;19843;51.040;13.782;2022-08-11T04:59:37;3.83;;;2.58;;
33505;SDS011;19843;51.040;13.782;2022-08-11T05:02:50;6.38;;;3.03;;
33505;SDS011;19843;51.040;13.782;2022-08-11T05:05:45;2.88;;;2.50;;
33505;SDS011;19843;51.040;13.782;2022-08-11T05:08:37;3.00;;;2.70;;
33505;SDS011;19843;51.040;13.782;2022-08-11T05:11:26;2.80;;;2.42;;
33505;SDS011;19843;51.040;13.782;2022-08-11T05:14:19;4.47;;;2.70;;
33505;SDS011;19843;51.040;13.782;2022-08-11T05:17:31;2.30;;;2.10;;
33505;SDS011;19843;51.040;13.782;2022-08-11T05:20:21;2.70;;;2.22;;
33505;SDS011;19843;51.040;13.782;2022-08-11T05:23:08;3.38;;;2.70;;
33505;SDS011;19843;51.040;13.782;2022-08-11T05:25:56;3.15;;;2.22;;
33505;SDS011;19843;51.040;13.782;2022-08-11T05:32:23;3.38;;;2.25;;
33505;SDS011;19843;51.040;13.782;2022-08-11T05:35:14;5.50;;;2.80;;
33505;SDS011;19843;51.040;13.782;2022-08-11T05:38:11;3.17;;;2.22;;
33505;SDS011;19843;51.040;13.782;2022-08-11T05:41:00;7.78;;;2.90;;
33505;SDS011;19843;51.040;13.782;2022-08-11T05:43:45;3.00;;;2.45;;
33505;SDS011;19843;51.040;13.782;2022-08-11T05:46:48;3.35;;;2.50;;
33505;SDS011;19843;51.040;13.782;2022-08-11T05:49:34;3.03;;;2.45;;
33505;SDS011;19843;51.040;13.782;2022-08-11T05:52:24;3.45;;;2.15;;
33505;SDS011;19843;51.040;13.782;2022-08-11T05:55:12;3.15;;;2.30;;
33505;SDS011;19843;51.040;13.782;2022-08-11T05:58:00;3.00;;;2.70;;
33505;SDS011;19843;51.040;13.782;2022-08-11T06:00:29;2.30;;;2.10;;
33505;SDS011;19843;51.040;13.782;2022-08-11T06:03:00;4.05;;;2.67;;
33505;SDS011;19843;51.040;13.782;2022-08-11T06:05:33;3.08;;;2.17;;
33505;SDS011;19843;51.040;13.782;2022-08-11T06:08:09;3.17;;;2.20;;
33505;SDS011;19843;51.040;13.782;2022-08-11T06:10:39;2.33;;;2.13;;
33505;SDS011;19843;51.040;13.782;2022-08-11T06:13:08;4.10;;;2.47;;
33505;SDS011;19843;51.040;13.782;2022-08-11T06:15:42;4.38;;;2.05;;
33505;SDS011;19843;51.040;13.782;2022-08-11T06:20:44;2.70;;;2.10;;
33505;SDS011;19843;51.040;13.782;2022-08-11T06:23:13;2.58;;;2.10;;
33505;SDS011;19843;51.040;13.782;2022-08-11T06:25:43;3.33;;;2.10;;
33505;SDS011;19843;51.040;13.782;2022-08-11T06:28:11;3.83;;;2.00;;
33505;SDS011;19843;51.040;13.782;2022-08-11T06:33:16;2.33;;;2.05;;
33505;SDS011;19843;51.040;13.782;2022-08-11T06:35:50;3.27;;;2.27;;
33505;SDS011;19843;51.040;13.782;2022-08-11T06:38:29;2.22;;;1.95;;
33505;SDS011;19843;51.040;13.782;2022-08-11T06:41:11;2.40;;;2.00;;
33505;SDS011;19843;51.040;13.782;2022-08-11T06:43:59;2.22;;;1.83;;
33505;SDS011;19843;51.040;13.782;2022-08-11T06:46:36;2.80;;;2.13;;
33505;SDS011;19843;51.040;13.782;2022-08-11T06:49:07;3.72;;;2.20;;
33505;SDS011;19843;51.040;13.782;2022-08-11T06:51:57;2.55;;;2.35;;
33505;SDS011;19843;51.040;13.782;2022-08-11T06:54:31;2.60;;;1.80;;
33505;SDS011;19843;51.040;13.782;2022-08-11T06:57:02;3.03;;;1.95;;
33505;SDS011;19843;51.040;13.782;2022-08-11T06:59:57;2.78;;;1.73;;
33505;SDS011;19843;51.040;13.782;2022-08-11T07:02:45;3.35;;;1.88;;
33505;SDS011;19843;51.040;13.782;2022-08-11T07:05:20;2.97;;;1.95;;
33505;SDS011;19843;51.040;13.782;2022-08-11T07:08:06;5.82;;;1.95;;
33505;SDS011;19843;51.040;13.782;2022-08-11T07:11:16;1.70;;;1.33;;
33505;SDS011;19843;51.040;13.782;2022-08-11T07:14:28;2.25;;;1.70;;
33505;SDS011;19843;51.040;13.782;2022-08-11T07:17:15;4.40;;;1.55;;
33505;SDS011;19843;51.040;13.782;2022-08-11T07:19:46;2.40;;;1.50;;
33505;SDS011;19843;51.040;13.782;2022-08-11T07:22:37;1.65;;;1.52;;
33505;SDS011;19843;51.040;13.782;2022-08-11T07:25:24;2.38;;;1.60;;
33505;SDS011;19843;51.040;13.782;2022-08-11T07:28:16;2.58;;;2.22;;
33505;SDS011;19843;51.040;13.782;2022-08-11T07:31:07;2.22;;;1.90;;
33505;SDS011;19843;51.040;13.782;2022-08-11T07:33:40;1.65;;;1.55;;
33505;SDS011;19843;51.040;13.782;2022-08-11T07:36:30;1.60;;;1.50;;
33505;SDS011;19843;51.040;13.782;2022-08-11T07:39:01;1.50;;;1.40;;
33505;SDS011;19843;51.040;13.782;2022-08-11T07:41:29;1.55;;;1.40;;
33505;SDS011;19843;51.040;13.782;2022-08-11T07:44:00;2.13;;;1.88;;
33505;SDS011;19843;51.040;13.782;2022-08-11T07:46:35;3.88;;;1.30;;
33505;SDS011;19843;51.040;13.782;2022-08-11T07:49:24;2.33;;;1.50;;
33505;SDS011;19843;51.040;13.782;2022-08-11T07:52:10;2.30;;;1.60;;
33505;SDS011;19843;51.040;13.782;2022-08-11T07:54:57;2.38;;;1.42;;
33505;SDS011;19843;51.040;13.782;2022-08-11T07:57:27;4.53;;;1.48;;
33505;SDS011;19843;51.040;13.782;2022-08-11T08:00:34;2.47;;;1.60;;
33505;SDS011;19843;51.040;13.782;2022-08-11T08:03:26;2.25;;;1.50;;
33505;SDS011;19843;51.040;13.782;2022-08-11T08:06:19;4.57;;;1.27;;
33505;SDS011;19843;51.040;13.782;2022-08-11T08:09:05;1.25;;;1.15;;
33505;SDS011;19843;51.040;13.782;2022-08-11T08:11:53;1.95;;;1.25;;
33505;SDS011;19843;51.040;13.782;2022-08-11T08:14:39;3.13;;;1.40;;
33505;SDS011;19843;51.040;13.782;2022-08-11T08:17:26;1.73;;;1.30;;
33505;SDS011;19843;51.040;13.782;2022-08-11T08:20:33;0.82;;;0.80;;
33505;SDS011;19843;51.040;13.782;2022-08-11T08:23:03;3.67;;;1.35;;
33505;SDS011;19843;51.040;13.782;2022-08-11T08:25:33;1.15;;;1.00;;
33505;SDS011;19843;51.040;13.782;2022-08-11T08:28:04;1.67;;;1.13;;
33505;SDS011;19843;51.040;13.782;2022-08-11T08:30:33;1.10;;;0.90;;
33505;SDS011;19843;51.040;13.782;2022-08-11T08:33:17;2.58;;;0.90;;
33505;SDS011;19843;51.040;13.782;2022-08-11T08:35:47;1.27;;;1.00;;
33505;SDS011;19843;51.040;13.782;2022-08-11T08:38:21;2.75;;;1.27;;
33505;SDS011;19843;51.040;13.782;2022-08-11T08:40:49;1.30;;;1.20;;
33505;SDS011;19843;51.040;13.782;2022-08-11T08:43:23;2.00;;;1.08;;
33505;SDS011;19843;51.040;13.782;2022-08-11T08:45:52;1.30;;;1.20;;
33505;SDS011;19843;51.040;13.782;2022-08-11T08:48:23;1.30;;;0.93;;
33505;SDS011;19843;51.040;13.782;2022-08-11T08:50:53;1.08;;;0.90;;
33505;SDS011;19843;51.040;13.782;2022-08-11T08:53:48;1.42;;;0.90;;
33505;SDS011;19843;51.040;13.782;2022-08-11T08:56:24;3.25;;;0.80;;
33505;SDS011;19843;51.040;13.782;2022-08-11T08:58:55;2.72;;;1.05;;
33505;SDS011;19843;51.040;13.782;2022-08-11T09:01:27;1.85;;;1.13;;
33505;SDS011;19843;51.040;13.782;2022-08-11T09:03:56;1.85;;;1.75;;
33505;SDS011;19843;51.040;13.782;2022-08-11T09:06:36;0.70;;;0.70;;
33505;SDS011;19843;51.040;13.782;2022-08-11T09:09:06;0.80;;;0.60;;
33505;SDS011;19843;51.040;13.782;2022-08-11T09:11:34;1.25;;;0.90;;
33505;SDS011;19843;51.040;13.782;2022-08-11T09:14:21;1.08;;;0.90;;
33505;SDS011;19843;51.040;13.782;2022-08-11T09:16:49;1.15;;;0.93;;
33505;SDS011;19843;51.040;13.782;2022-08-11T09:19:18;1.23;;;0.90;;
33505;SDS011;19843;51.040;13.782;2022-08-11T09:21:47;1.10;;;0.77;;
33505;SDS011;19843;51.040;13.782;2022-08-11T09:24:37;1.70;;;1.10;;
33505;SDS011;19843;51.040;13.782;2022-08-11T09:27:23;1.65;;;1.00;;
33505;SDS011;19843;51.040;13.782;2022-08-11T09:29:53;8.98;;;1.05;;
33505;SDS011;19843;51.040;13.782;2022-08-11T09:32:22;1.13;;;0.80;;
33505;SDS011;19843;51.040;13.782;2022-08-11T09:34:51;2.00;;;1.00;;
33505;SDS011;19843;51.040;13.782;2022-08-11T09:37:20;1.00;;;0.90;;
33505;SDS011;19843;51.040;13.782;2022-08-11T09:40:21;1.58;;;1.02;;
33505;SDS011;19843;51.040;13.782;2022-08-11T09:42:58;3.65;;;0.90;;
33505;SDS011;19843;51.040;13.782;2022-08-11T09:45:48;0.93;;;0.77;;
33505;SDS011;19843;51.040;13.782;2022-08-11T09:48:18;2.33;;;1.60;;
33505;SDS011;19843;51.040;13.782;2022-08-11T09:50:47;3.20;;;1.27;;
33505;SDS011;19843;51.040;13.782;2022-08-11T09:53:17;1.27;;;1.17;;
33505;SDS011;19843;51.040;13.782;2022-08-11T09:56:06;1.70;;;1.05;;
33505;SDS011;19843;51.040;13.782;2022-08-11T09:58:54;1.60;;;1.05;;
33505;SDS011;19843;51.040;13.782;2022-08-11T10:01:25;2.25;;;0.95;;
33505;SDS011;19843;51.040;13.782;2022-08-11T10:03:57;1.45;;;1.00;;
33505;SDS011;19843;51.040;13.782;2022-08-11T10:06:27;0.80;;;0.80;;
33505;SDS011;19843;51.040;13.782;2022-08-11T10:09:19;0.63;;;0.63;;
33505;SDS011;19843;51.040;13.782;2022-08-11T10:11:50;1.75;;;1.00;;
33505;SDS011;19843;51.040;13.782;2022-08-11T10:14:23;1.23;;;0.80;;
33505;SDS011;19843;51.040;13.782;2022-08-11T10:17:12;1.70;;;1.00;;
33505;SDS011;19843;51.040;13.782;2022-08-11T10:19:42;1.35;;;1.25;;
33505;SDS011;19843;51.040;13.782;2022-08-11T10:22:30;4.10;;;0.95;;
33505;SDS011;19843;51.040;13.782;2022-08-11T10:25:17;1.88;;;0.93;;
33505;SDS011;19843;51.040;13.782;2022-08-11T10:28:05;3.25;;;1.30;;
33505;SDS011;19843;51.040;13.782;2022-08-11T10:30:54;0.60;;;0.60;;
33505;SDS011;19843;51.040;13.782;2022-08-11T10:33:43;2.30;;;0.70;;
33505;SDS011;19843;51.040;13.782;2022-08-11T10:36:27;1.73;;;0.80;;
33505;SDS011;19843;51.040;13.782;2022-08-11T10:38:55;1.38;;;0.68;;
33505;SDS011;19843;51.040;13.782;2022-08-11T10:41:24;0.70;;;0.57;;
33505;SDS011;19843;51.040;13.782;2022-08-11T10:44:30;0.50;;;0.50;;
33505;SDS011;19843;51.040;13.782;2022-08-11T10:47:02;0.95;;;0.80;;
33505;SDS011;19843;51.040;13.782;2022-08-11T10:49:49;1.00;;;0.98;;
33505;SDS011;19843;51.040;13.782;2022-08-11T10:52:38;2.90;;;0.52;;
33505;SDS011;19843;51.040;13.782;2022-08-11T10:55:24;0.70;;;0.70;;
33505;SDS011;19843;51.040;13.782;2022-08-11T10:58:10;1.17;;;0.82;;
33505;SDS011;19843;51.040;13.782;2022-08-11T11:00:56;2.47;;;0.82;;
33505;SDS011;19843;51.040;13.782;2022-08-11T11:03:26;0.70;;;0.70;;
33505;SDS011;19843;51.040;13.782;2022-08-11T11:05:59;0.90;;;0.68;;
33505;SDS011;19843;51.040;13.782;2022-08-11T11:08:55;1.08;;;0.68;;
33505;SDS011;19843;51.040;13.782;2022-08-11T11:11:32;1.02;;;0.50;;
33505;SDS011;19843;51.040;13.782;2022-08-11T11:14:19;1.20;;;0.85;;
33505;SDS011;19843;51.040;13.782;2022-08-11T11:17:17;1.70;;;0.85;;
33505;SDS011;19843;51.040;13.782;2022-08-11T11:20:11;4.45;;;0.65;;
33505;SDS011;19843;51.040;13.782;2022-08-11T11:23:05;0.57;;;0.50;;
33505;SDS011;19843;51.040;13.782;2022-08-11T11:25:41;0.65;;;0.60;;
33505;SDS011;19843;51.040;13.782;2022-08-11T11:28:36;0.60;;;0.50;;
33505;SDS011;19843;51.040;13.782;2022-08-11T11:31:17;2.67;;;0.60;;
33505;SDS011;19843;51.040;13.782;2022-08-11T11:34:00;0.47;;;0.40;;
33505;SDS011;19843;51.040;13.782;2022-08-11T11:36:43;1.48;;;0.50;;
33505;SDS011;19843;51.040;13.782;2022-08-11T11:39:17;0.50;;;0.50;;
33505;SDS011;19843;51.040;13.782;2022-08-11T11:41:47;0.68;;;0.30;;
33505;SDS011;19843;51.040;13.782;2022-08-11T11:44:15;2.03;;;0.60;;
33505;SDS011;19843;51.040;13.782;2022-08-11T11:46:44;0.88;;;0.60;;
33505;SDS011;19843;51.040;13.782;2022-08-11T11:49:12;0.77;;;0.30;;
33505;SDS011;19843;51.040;13.782;2022-08-11T11:51:43;0.93;;;0.70;;
33505;SDS011;19843;51.040;13.782;2022-08-11T11:54:16;0.80;;;0.40;;
33505;SDS011;19843;51.040;13.782;2022-08-11T11:56:49;0.60;;;0.60;;
33505;SDS011;19843;51.040;13.782;2022-08-11T11:59:18;0.95;;;0.57;;
33505;SDS011;19843;51.040;13.782;2022-08-11T12:02:04;1.38;;;0.60;;
33505;SDS011;19843;51.040;13.782;2022-08-11T12:04:38;0.70;;;0.52;;
33505;SDS011;19843;51.040;13.782;2022-08-11T12:07:08;0.50;;;0.35;;
33505;SDS011;19843;51.040;13.782;2022-08-11T12:09:56;1.50;;;0.57;;
33505;SDS011;19843;51.040;13.782;2022-08-11T12:12:26;0.73;;;0.60;;
33505;SDS011;19843;51.040;13.782;2022-08-11T12:15:08;1.52;;;0.47;;
33505;SDS011;19843;51.040;13.782;2022-08-11T12:17:36;0.82;;;0.70;;
33505;SDS011;19843;51.040;13.782;2022-08-11T12:20:05;0.35;;;0.30;;
33505;SDS011;19843;51.040;13.782;2022-08-11T12:22:54;0.95;;;0.50;;
33505;SDS011;19843;51.040;13.782;2022-08-11T12:25:42;0.68;;;0.50;;
33505;SDS011;19843;51.040;13.782;2022-08-11T12:28:48;0.40;;;0.32;;
33505;SDS011;19843;51.040;13.782;2022-08-11T12:31:17;0.30;;;0.30;;
33505;SDS011;19843;51.040;13.782;2022-08-11T12:33:51;0.32;;;0.32;;
33505;SDS011;19843;51.040;13.782;2022-08-11T12:36:18;1.60;;;0.50;;
33505;SDS011;19843;51.040;13.782;2022-08-11T12:38:47;1.15;;;0.50;;
33505;SDS011;19843;51.040;13.782;2022-08-11T12:41:19;0.68;;;0.30;;
33505;SDS011;19843;51.040;13.782;2022-08-11T12:44:06;0.57;;;0.57;;
33505;SDS011;19843;51.040;13.782;2022-08-11T12:46:55;0.68;;;0.45;;
33505;SDS011;19843;51.040;13.782;2022-08-11T12:49:25;0.32;;;0.25;;
33505;SDS011;19843;51.040;13.782;2022-08-11T12:52:16;0.20;;;0.20;;
33505;SDS011;19843;51.040;13.782;2022-08-11T12:54:52;2.70;;;0.40;;
33505;SDS011;19843;51.040;13.782;2022-08-11T12:57:27;2.33;;;0.40;;
33505;SDS011;19843;51.040;13.782;2022-08-11T13:00:30;0.60;;;0.50;;
33505;SDS011;19843;51.040;13.782;2022-08-11T13:03:17;0.50;;;0.40;;
33505;SDS011;19843;51.040;13.782;2022-08-11T13:06:04;0.70;;;0.55;;
33505;SDS011;19843;51.040;13.782;2022-08-11T13:08:34;0.22;;;0.22;;
33505;SDS011;19843;51.040;13.782;2022-08-11T13:11:03;1.20;;;0.70;;
33505;SDS011;19843;51.040;13.782;2022-08-11T13:14:11;0.93;;;0.60;;
33505;SDS011;19843;51.040;13.782;2022-08-11T13:16:40;0.82;;;0.60;;
33505;SDS011;19843;51.040;13.782;2022-08-11T13:19:27;0.38;;;0.38;;
33505;SDS011;19843;51.040;13.782;2022-08-11T13:21:57;0.60;;;0.60;;
33505;SDS011;19843;51.040;13.782;2022-08-11T13:24:27;0.88;;;0.45;;
33505;SDS011;19843;51.040;13.782;2022-08-11T13:26:55;0.80;;;0.50;;
33505;SDS011;19843;51.040;13.782;2022-08-11T13:29:26;0.88;;;0.75;;
33505;SDS011;19843;51.040;13.782;2022-08-11T13:31:55;0.68;;;0.57;;
33505;SDS011;19843;51.040;13.782;2022-08-11T13:34:25;0.40;;;0.40;;
33505;SDS011;19843;51.040;13.782;2022-08-11T13:36:56;0.40;;;0.30;;
33505;SDS011;19843;51.040;13.782;2022-08-11T13:39:27;0.77;;;0.60;;
33505;SDS011;19843;51.040;13.782;2022-08-11T13:41:57;1.05;;;0.80;;
33505;SDS011;19843;51.040;13.782;2022-08-11T13:44:28;1.33;;;0.60;;
33505;SDS011;19843;51.040;13.782;2022-08-11T13:46:59;1.40;;;0.63;;
33505;SDS011;19843;51.040;13.782;2022-08-11T13:49:30;1.40;;;0.60;;
33505;SDS011;19843;51.040;13.782;2022-08-11T13:51:59;1.23;;;0.95;;
33505;SDS011;19843;51.040;13.782;2022-08-11T13:54:29;1.00;;;0.77;;
33505;SDS011;19843;51.040;13.782;2022-08-11T13:56:59;1.48;;;0.60;;
33505;SDS011;19843;51.040;13.782;2022-08-11T13:59:36;1.38;;;0.57;;
33505;SDS011;19843;51.040;13.782;2022-08-11T14:02:17;1.65;;;0.50;;
33505;SDS011;19843;51.040;13.782;2022-08-11T14:04:56;0.85;;;0.73;;
33505;SDS011;19843;51.040;13.782;2022-08-11T14:07:26;1.60;;;0.57;;
33505;SDS011;19843;51.040;13.782;2022-08-11T14:10:00;1.73;;;0.55;;
33505;SDS011;19843;51.040;13.782;2022-08-11T14:12:31;2.13;;;0.60;;
33505;SDS011;19843;51.040;13.782;2022-08-11T14:15:22;0.93;;;0.52;;
33505;SDS011;19843;51.040;13.782;2022-08-11T14:17:54;0.80;;;0.57;;
33505;SDS011;19843;51.040;13.782;2022-08-11T14:20:26;0.90;;;0.73;;
33505;SDS011;19843;51.040;13.782;2022-08-11T14:23:18;0.82;;;0.70;;
33505;SDS011;19843;51.040;13.782;2022-08-11T14:25:50;0.70;;;0.70;;
33505;SDS011;19843;51.040;13.782;2022-08-11T14:28:35;3.70;;;0.77;;
33505;SDS011;19843;51.040;13.782;2022-08-11T14:31:12;4.88;;;1.77;;
33505;SDS011;19843;51.040;13.782;2022-08-11T14:33:41;1.38;;;0.52;;
33505;SDS011;19843;51.040;13.782;2022-08-11T14:36:27;0.73;;;0.60;;
33505;SDS011;19843;51.040;13.782;2022-08-11T14:38:57;0.98;;;0.90;;
33505;SDS011;19843;51.040;13.782;2022-08-11T14:41:27;0.80;;;0.68;;
33505;SDS011;19843;51.040;13.782;2022-08-11T14:44:33;1.83;;;0.80;;
33505;SDS011;19843;51.040;13.782;2022-08-11T14:47:21;1.90;;;0.90;;
33505;SDS011;19843;51.040;13.782;2022-08-11T14:49:52;1.00;;;0.88;;
33505;SDS011;19843;51.040;13.782;2022-08-11T14:52:37;0.88;;;0.77;;
33505;SDS011;19843;51.040;13.782;2022-08-11T14:55:09;3.03;;;0.70;;
33505;SDS011;19843;51.040;13.782;2022-08-11T14:57:56;2.47;;;1.02;;
33505;SDS011;19843;51.040;13.782;2022-08-11T15:00:24;1.90;;;0.60;;
33505;SDS011;19843;51.040;13.782;2022-08-11T15:02:54;0.75;;;0.63;;
33505;SDS011;19843;51.040;13.782;2022-08-11T15:05:38;0.93;;;0.60;;
33505;SDS011;19843;51.040;13.782;2022-08-11T15:08:22;0.75;;;0.60;;
33505;SDS011;19843;51.040;13.782;2022-08-11T15:11:12;1.30;;;0.70;;
33505;SDS011;19843;51.040;13.782;2022-08-11T15:14:00;0.45;;;0.45;;
33505;SDS011;19843;51.040;13.782;2022-08-11T15:16:30;0.77;;;0.52;;
33505;SDS011;19843;51.040;13.782;2022-08-11T15:19:17;1.10;;;0.70;;
33505;SDS011;19843;51.040;13.782;2022-08-11T15:21:47;0.80;;;0.60;;
33505;SDS011;19843;51.040;13.782;2022-08-11T15:24:32;1.23;;;0.60;;
33505;SDS011;19843;51.040;13.782;2022-08-11T15:27:02;0.65;;;0.50;;
33505;SDS011;19843;51.040;13.782;2022-08-11T15:29:49;0.60;;;0.60;;
33505;SDS011;19843;51.040;13.782;2022-08-11T15:32:51;1.75;;;1.00;;
33505;SDS011;19843;51.040;13.782;2022-08-11T15:35:40;0.85;;;0.57;;
33505;SDS011;19843;51.040;13.782;2022-08-11T15:38:26;1.33;;;0.68;;
33505;SDS011;19843;51.040;13.782;2022-08-11T15:41:01;1.45;;;0.70;;
33505;SDS011;19843;51.040;13.782;2022-08-11T15:43:50;1.13;;;0.77;;
33505;SDS011;19843;51.040;13.782;2022-08-11T15:46:40;2.55;;;0.70;;
33505;SDS011;19843;51.040;13.782;2022-08-11T15:49:11;0.65;;;0.60;;
33505;SDS011;19843;51.040;13.782;2022-08-11T15:51:49;1.50;;;1.10;;
33505;SDS011;19843;51.040;13.782;2022-08-11T15:54:28;1.02;;;0.80;;
33505;SDS011;19843;51.040;13.782;2022-08-11T15:56:58;1.00;;;0.80;;
33505;SDS011;19843;51.040;13.782;2022-08-11T15:59:28;1.38;;;0.70;;
33505;SDS011;19843;51.040;13.782;2022-08-11T16:02:18;0.50;;;0.50;;
33505;SDS011;19843;51.040;13.782;2022-08-11T16:05:05;1.38;;;0.80;;
33505;SDS011;19843;51.040;13.782;2022-08-11T16:07:39;0.70;;;0.70;;
33505;SDS011;19843;51.040;13.782;2022-08-11T16:10:13;1.10;;;0.77;;
33505;SDS011;19843;51.040;13.782;2022-08-11T16:12:48;2.08;;;1.17;;
33505;SDS011;19843;51.040;13.782;2022-08-11T16:15:44;2.03;;;0.70;;
33505;SDS011;19843;51.040;13.782;2022-08-11T16:18:33;3.63;;;1.02;;
33505;SDS011;19843;51.040;13.782;2022-08-11T16:21:09;1.13;;;0.68;;
33505;SDS011;19843;51.040;13.782;2022-08-11T16:24:00;1.60;;;0.73;;
33505;SDS011;19843;51.040;13.782;2022-08-11T16:26:32;0.97;;;0.60;;
33505;SDS011;19843;51.040;13.782;2022-08-11T16:29:24;0.77;;;0.77;;
33505;SDS011;19843;51.040;13.782;2022-08-11T16:31:53;1.30;;;0.70;;
33505;SDS011;19843;51.040;13.782;2022-08-11T16:34:40;0.70;;;0.70;;
33505;SDS011;19843;51.040;13.782;2022-08-11T16:37:27;0.50;;;0.50;;
33505;SDS011;19843;51.040;13.782;2022-08-11T16:40:15;1.02;;;0.65;;
33505;SDS011;19843;51.040;13.782;2022-08-11T16:42:44;0.63;;;0.60;;